createdAt,value
2023-04-14T00:04:01.002Z,94865.98
2023-04-14T00:12:24.020Z,94886.30
2023-04-14T00:20:47.676Z,94872.27
2023-04-14T00:29:10.812Z,94871.98
2023-04-14T00:37:33.693Z,94892.86
2023-04-14T00:45:56.861Z,94900.34
2023-04-14T00:54:20.169Z,94888.40
2023-04-14T01:02:43.333Z,94875.53
2023-04-14T01:11:51.638Z,94857.63
2023-04-14T01:20:23.053Z,94839.52
2023-04-14T01:29:24.077Z,94819.65
2023-04-14T01:37:58.028Z,94789.05
2023-04-14T01:46:21.923Z,94742.75
2023-04-14T01:54:49.689Z,94701.42
2023-04-14T02:03:13.778Z,94676.32
2023-04-14T02:11:38.541Z,94652.85
2023-04-14T02:20:02.016Z,94620.95
2023-04-14T02:28:32.206Z,94598.10
2023-04-14T02:36:57.892Z,94570.35
2023-04-14T02:45:26.798Z,94523.46
2023-04-14T02:53:51.019Z,94459.79
2023-04-14T03:02:25.368Z,94415.91
2023-04-14T03:10:57.392Z,94382.46
2023-04-14T03:19:24.192Z,94332.23
2023-04-14T03:27:48.472Z,94290.29
2023-04-14T03:36:12.930Z,94282.02
2023-04-14T03:44:39.020Z,94280.19
2023-04-14T03:53:02.093Z,94291.56
2023-04-14T04:01:27.050Z,94329.98
2023-04-14T04:09:52.548Z,94370.40
2023-04-14T04:18:18.319Z,94432.94
2023-04-14T04:26:41.960Z,94472.48
2023-04-14T04:35:07.376Z,94508.29
2023-04-14T04:43:30.765Z,94536.55
2023-04-14T04:51:54.523Z,94566.96
2023-04-14T05:00:18.322Z,94612.52
2023-04-14T05:08:41.244Z,94632.44
2023-04-14T05:17:06.279Z,94659.55
2023-04-14T05:25:29.179Z,94721.23
2023-04-14T05:33:52.089Z,94772.77
2023-04-14T05:42:14.941Z,94817.72
2023-04-14T05:50:38.464Z,94881.14
2023-04-14T05:59:01.810Z,94921.40
2023-04-14T06:07:24.701Z,95017.33
2023-04-14T06:15:50.129Z,95150.27
2023-04-14T06:24:13.090Z,95334.52
2023-04-14T06:32:36.239Z,95669.04
2023-04-14T06:40:59.275Z,95965.46
2023-04-14T06:49:24.035Z,96098.94
2023-04-14T06:57:47.001Z,96243.21
2023-04-14T07:06:13.960Z,96420.42
2023-04-14T07:14:38.109Z,96532.99
2023-04-14T07:23:01.132Z,96629.69
2023-04-14T07:31:24.114Z,96740.52
2023-04-14T07:39:46.959Z,96850.92
2023-04-14T07:48:10.676Z,97019.33
2023-04-14T07:56:33.594Z,97073.20
2023-04-14T08:04:56.565Z,97107.43
2023-04-14T08:13:19.520Z,97150.28
2023-04-14T08:21:42.381Z,97203.27
2023-04-14T08:30:09.483Z,97244.23
2023-04-14T08:38:33.296Z,97348.99
2023-04-14T08:46:57.531Z,97471.55
2023-04-14T08:55:21.244Z,97505.06
2023-04-14T09:03:45.347Z,97519.40
2023-04-14T09:12:09.542Z,97501.03
2023-04-14T09:20:37.651Z,97463.38
2023-04-14T09:29:03.543Z,97479.80
2023-04-14T09:37:26.804Z,97539.52
2023-04-14T09:45:49.737Z,97548.77
2023-04-14T09:54:22.491Z,97504.36
2023-04-14T10:02:56.742Z,97572.28
2023-04-14T10:11:29.817Z,97591.56
2023-04-14T10:19:54.306Z,97645.77
2023-04-14T10:28:17.796Z,97614.40
2023-04-14T10:36:41.529Z,97721.70
2023-04-14T10:45:09.059Z,97829.80
2023-04-14T10:53:45.758Z,97875.57
2023-04-14T11:02:30.034Z,97798.13
2023-04-14T11:11:04.305Z,97824.79
2023-04-14T11:19:27.728Z,98032.39
2023-04-14T11:27:50.561Z,97929.23
2023-04-14T11:36:13.618Z,97873.17
2023-04-14T11:44:36.913Z,97924.55
2023-04-14T11:53:00.950Z,97975.27
2023-04-14T12:01:24.392Z,98045.98
2023-04-14T12:09:49.547Z,98098.29
2023-04-14T12:18:15.905Z,98158.11
2023-04-14T12:26:39.046Z,98077.27
2023-04-14T12:35:19.099Z,97992.83
2023-04-14T12:43:41.952Z,98098.98
2023-04-14T12:52:06.094Z,98131.91
2023-04-14T13:00:29.054Z,98221.45
2023-04-14T13:08:53.944Z,98214.17
2023-04-14T13:17:16.848Z,98203.48
2023-04-14T13:25:41.000Z,98258.41
2023-04-14T13:34:04.650Z,98374.91
2023-04-14T13:42:44.033Z,98355.46
2023-04-14T13:51:06.942Z,98173.81
2023-04-14T13:59:29.979Z,98210.64
2023-04-14T14:07:53.261Z,98238.50
2023-04-14T14:16:33.106Z,98212.38
2023-04-14T14:25:14.895Z,98078.10
2023-04-14T14:33:41.231Z,98046.48
2023-04-14T14:42:04.335Z,98008.86
2023-04-14T14:50:27.461Z,97895.74
2023-04-14T14:58:50.719Z,97868.73
2023-04-14T15:07:13.648Z,97851.34
2023-04-14T15:15:36.955Z,97695.45
2023-04-14T15:24:00.262Z,97553.68
2023-04-14T15:32:26.751Z,97485.44
2023-04-14T15:40:49.962Z,97423.19
2023-04-14T15:49:12.764Z,97353.51
2023-04-14T15:57:36.884Z,97289.53
2023-04-14T16:06:04.203Z,97195.71
2023-04-14T16:14:31.563Z,97130.58
2023-04-14T16:22:54.478Z,97057.20
2023-04-14T16:31:17.991Z,96999.98
2023-04-14T16:39:41.434Z,96938.65
2023-04-14T16:48:04.550Z,96869.20
2023-04-14T16:56:27.608Z,96789.75
2023-04-14T17:04:50.728Z,96698.48
2023-04-14T17:13:14.137Z,96611.02
2023-04-14T17:21:38.792Z,96519.30
2023-04-14T17:30:03.406Z,96438.58
2023-04-14T17:38:26.551Z,96369.14
2023-04-14T17:46:49.897Z,96295.43
2023-04-14T17:55:14.055Z,96232.24
2023-04-14T18:03:36.939Z,96175.84
2023-04-14T18:11:59.916Z,96130.73
2023-04-14T18:20:25.426Z,96095.65
2023-04-14T18:28:48.371Z,96069.36
2023-04-14T18:37:15.770Z,96047.02
2023-04-14T18:45:38.977Z,96043.83
2023-04-14T18:54:02.338Z,96048.79
2023-04-14T19:02:26.147Z,96045.23
2023-04-14T19:10:49.532Z,96016.63
2023-04-14T19:19:12.592Z,95974.77
2023-04-14T19:27:36.304Z,95929.80
2023-04-14T19:35:59.226Z,95904.48
2023-04-14T19:44:22.146Z,95886.34
2023-04-14T19:52:46.738Z,95892.42
2023-04-14T20:01:09.767Z,95881.91
2023-04-14T20:09:33.728Z,95862.05
2023-04-14T20:17:57.195Z,95844.38
2023-04-14T20:26:20.734Z,95840.44
2023-04-14T20:34:43.572Z,95834.94
2023-04-14T20:43:07.585Z,95831.70
2023-04-14T20:51:32.381Z,95823.90
2023-04-14T20:59:55.792Z,95823.08
2023-04-14T21:08:19.475Z,95820.52
2023-04-14T21:16:42.409Z,95804.28
2023-04-14T21:25:05.879Z,95788.15
2023-04-14T21:33:28.881Z,95781.23
2023-04-14T21:41:52.497Z,95775.36
2023-04-14T21:50:15.458Z,95769.09
2023-04-14T21:58:39.621Z,95754.63
2023-04-14T22:07:02.784Z,95753.13
2023-04-14T22:15:25.998Z,95750.54
2023-04-14T22:23:49.004Z,95752.15
2023-04-14T22:32:12.141Z,95746.92
2023-04-14T22:40:35.025Z,95741.19
2023-04-14T22:48:57.959Z,95728.45
2023-04-14T22:57:20.773Z,95721.01
2023-04-14T23:05:44.778Z,95718.64
2023-04-14T23:14:07.814Z,95707.73
2023-04-14T23:22:30.654Z,95699.60
2023-04-14T23:30:53.494Z,95690.46
2023-04-14T23:39:16.419Z,95682.66
2023-04-14T23:47:39.411Z,95653.94
2023-04-14T23:56:04.170Z,95600.02
